createdAt,value
2019-04-14T00:00:33.689Z,2.8
2019-04-14T00:05:31.249Z,3.6
2019-04-14T00:10:24.583Z,2.4
2019-04-14T00:15:27.483Z,2.3
2019-04-14T00:20:14.219Z,2.2
2019-04-14T00:25:09.379Z,2.1
2019-04-14T00:30:05.455Z,2.1
2019-04-14T00:35:00.244Z,2.1
2019-04-14T00:39:55.473Z,3.3
2019-04-14T00:44:50.235Z,3.5
2019-04-14T00:49:46.247Z,3.4
2019-04-14T00:54:41.378Z,3.5
2019-04-14T00:59:35.905Z,3.4
2019-04-14T01:04:31.602Z,2
2019-04-14T01:09:26.351Z,1.9
2019-04-14T01:14:21.576Z,3.4
2019-04-14T01:19:17.727Z,2
2019-04-14T01:24:12.078Z,3.1
2019-04-14T01:29:07.997Z,1.6
2019-04-14T01:34:02.362Z,2.2
2019-04-14T01:38:58.129Z,3.2
2019-04-14T01:43:53.893Z,1.7
2019-04-14T01:48:49.327Z,2.9
2019-04-14T01:53:44.558Z,2.8
2019-04-14T01:58:38.891Z,1.5
2019-04-14T02:03:34.484Z,3.2
2019-04-14T02:08:29.258Z,3.7
2019-04-14T02:13:24.698Z,3.8
2019-04-14T02:18:20.840Z,2.8
2019-04-14T02:23:16.994Z,2.9
2019-04-14T02:28:11.222Z,4.4
2019-04-14T02:43:29.166Z,3.3
2019-04-14T02:53:14.964Z,3.4
2019-04-14T02:58:09.698Z,4.7
2019-04-14T03:03:08.646Z,4.8
2019-04-14T03:07:59.550Z,4.8
2019-04-14T03:12:57.608Z,4.8
2019-04-14T03:17:59.925Z,3.5
2019-04-14T03:22:49.598Z,4.8
2019-04-14T03:33:04.312Z,3.3
2019-04-14T03:42:35.026Z,4.8
2019-04-14T03:52:21.488Z,4.7
2019-04-14T03:56:49.162Z,3.5
2019-04-14T04:01:44.194Z,3.6
2019-04-14T04:06:39.912Z,3.7
2019-04-14T04:11:35.185Z,5.2
2019-04-14T04:16:31.168Z,4.3
2019-04-14T04:21:26.958Z,4.7
2019-04-14T04:26:21.461Z,5.2
2019-04-14T04:31:17.772Z,6.7
2019-04-14T04:36:12.468Z,6.6
2019-04-14T04:41:08.310Z,7
2019-04-14T04:46:04.831Z,8.2
2019-04-14T04:51:00.648Z,9.6
2019-04-14T04:55:56.783Z,8.6
2019-04-14T05:00:54.215Z,14.8
2019-04-14T05:05:49.532Z,10.6
2019-04-14T05:10:45.861Z,11.7
2019-04-14T05:15:42.371Z,12.4
2019-04-14T05:20:37.767Z,9.3
2019-04-14T05:25:32.409Z,10.4
2019-04-14T05:30:28.527Z,9.2
2019-04-14T05:35:23.039Z,9.3
2019-04-14T05:40:18.873Z,8.8
2019-04-14T05:45:13.872Z,8.8
2019-04-14T05:50:09.929Z,9.9
2019-04-14T05:55:05.114Z,9.9
2019-04-14T06:00:01.723Z,9.1
2019-04-14T06:04:57.035Z,10.4
2019-04-14T06:09:51.372Z,11
2019-04-14T06:14:47.165Z,11.2
2019-04-14T06:19:43.173Z,11.3
2019-04-14T06:24:39.030Z,12
2019-04-14T06:29:35.221Z,12.8
2019-04-14T06:34:31.330Z,13.4
2019-04-14T06:39:27.429Z,14.2
2019-04-14T06:44:23.124Z,12.5
2019-04-14T06:49:15.835Z,12.7
2019-04-14T06:54:12.044Z,14.9
2019-04-14T06:59:08.474Z,15.5
2019-04-14T07:04:04.718Z,21
2019-04-14T07:09:03.179Z,31.8
2019-04-14T07:14:04.353Z,27.7
2019-04-14T07:19:03.596Z,29.2
2019-04-14T07:24:01.381Z,29.9
2019-04-14T07:28:58.837Z,20.1
2019-04-14T07:33:53.573Z,23.5
2019-04-14T07:43:46.747Z,25.9
2019-04-14T07:48:43.138Z,21.8
2019-04-14T07:53:37.367Z,22.5
2019-04-14T07:58:31.164Z,25.8
2019-04-14T08:03:26.356Z,17
2019-04-14T08:08:20.855Z,21.9
2019-04-14T08:13:15.994Z,16.2
2019-04-14T08:18:10.518Z,15.9
2019-04-14T08:23:06.035Z,20.9
2019-04-14T08:28:01.496Z,19.3
2019-04-14T08:32:57.126Z,19.2
2019-04-14T08:37:53.247Z,13.5
2019-04-14T08:42:48.672Z,16.3
2019-04-14T08:47:45.130Z,15.6
2019-04-14T08:52:41.189Z,16.6
2019-04-14T08:57:37.217Z,14.5
2019-04-14T09:02:34.141Z,20
2019-04-14T09:07:30.282Z,21.2
2019-04-14T09:12:26.502Z,22.2
2019-04-14T09:17:22.704Z,23.4
2019-04-14T09:22:19.391Z,27.5
2019-04-14T09:27:16.521Z,26.1
2019-04-14T09:32:12.934Z,28.6
2019-04-14T09:37:12.007Z,25.5
2019-04-14T09:42:06.184Z,26.7
2019-04-14T09:47:02.240Z,25.4
2019-04-14T09:52:00.246Z,29.3
2019-04-14T09:56:57.149Z,25.7
2019-04-14T10:01:53.080Z,25.8
2019-04-14T10:06:48.048Z,24.6
2019-04-14T10:11:48.700Z,27.3
2019-04-14T10:16:40.136Z,32.7
2019-04-14T10:21:37.924Z,36.4
2019-04-14T10:26:36.281Z,31.3
2019-04-14T10:31:32.761Z,31.1
2019-04-14T10:36:29.320Z,29.8
2019-04-14T10:41:24.798Z,25.8
2019-04-14T10:46:19.458Z,25
2019-04-14T10:51:14.345Z,22.6
2019-04-14T10:56:09.116Z,22.4
2019-04-14T11:01:04.385Z,24.3
2019-04-14T11:06:00.669Z,31
2019-04-14T11:10:58.195Z,27.4
2019-04-14T11:15:53.981Z,22.7
2019-04-14T11:20:48.433Z,21.1
2019-04-14T11:25:42.796Z,20.4
2019-04-14T11:30:37.018Z,20.5
2019-04-14T11:35:31.741Z,19.3
2019-04-14T11:40:26.606Z,19.1
2019-04-14T11:45:21.627Z,18.3
2019-04-14T11:50:16.040Z,18.2
2019-04-14T11:55:11.659Z,19
2019-04-14T12:00:07.091Z,19.2
2019-04-14T12:05:02.706Z,20.1
2019-04-14T12:09:58.021Z,20.5
2019-04-14T12:14:53.719Z,20.6
2019-04-14T12:19:49.686Z,20.2
2019-04-14T12:24:45.516Z,20.6
2019-04-14T12:29:41.234Z,21.1
2019-04-14T12:34:37.050Z,20.9
2019-04-14T12:39:32.815Z,19.5
2019-04-14T12:44:29.338Z,19.3
2019-04-14T12:49:24.487Z,19.7
2019-04-14T12:54:20.437Z,19.6
2019-04-14T12:59:16.344Z,19
2019-04-14T13:04:11.611Z,20.1
2019-04-14T13:09:07.823Z,20.5
2019-04-14T13:14:03.968Z,24.1
2019-04-14T13:19:00.362Z,19.4
2019-04-14T13:23:55.688Z,17.8
2019-04-14T13:28:50.544Z,17.6
2019-04-14T13:33:45.595Z,16.9
2019-04-14T13:38:40.521Z,16.6
2019-04-14T13:43:35.976Z,16.5
2019-04-14T13:48:31.508Z,15.9
2019-04-14T13:53:26.969Z,20.5
2019-04-14T13:58:23.870Z,21.8
2019-04-14T14:03:20.565Z,20.9
2019-04-14T14:08:16.895Z,21
2019-04-14T14:13:12.497Z,21.4
2019-04-14T14:18:08.503Z,21.1
2019-04-14T14:23:04.160Z,21.3
2019-04-14T14:27:59.792Z,21.5
2019-04-14T14:32:55.724Z,21.2
2019-04-14T14:37:51.589Z,21.6
2019-04-14T14:42:47.365Z,21.5
2019-04-14T14:47:42.983Z,21.4
2019-04-14T14:52:38.537Z,20.6
2019-04-14T14:57:34.388Z,20.3
2019-04-14T15:02:30.109Z,19.9
2019-04-14T15:07:25.806Z,20.3
2019-04-14T15:12:21.208Z,19.7
2019-04-14T15:17:16.889Z,19.9
2019-04-14T15:22:12.395Z,19.2
2019-04-14T15:27:07.834Z,19.8
2019-04-14T15:32:03.160Z,19
2019-04-14T15:36:58.599Z,18.8
2019-04-14T15:41:53.830Z,20.5
2019-04-14T15:46:49.424Z,22.3
2019-04-14T15:51:45.291Z,21.5
2019-04-14T15:56:40.988Z,18.4
2019-04-14T16:01:36.377Z,16.1
2019-04-14T16:06:31.602Z,15
2019-04-14T16:11:26.823Z,14.6
2019-04-14T16:16:21.396Z,14
2019-04-14T16:21:16.632Z,13.8
2019-04-14T16:26:11.719Z,13.7
2019-04-14T16:31:07.113Z,13.4
2019-04-14T16:36:02.413Z,12.8
2019-04-14T16:40:58.150Z,12.3
2019-04-14T16:45:53.521Z,11.8
2019-04-14T16:50:48.645Z,11.3
2019-04-14T16:55:43.819Z,10.9
2019-04-14T17:00:38.914Z,10.4
2019-04-14T17:05:35.004Z,10.1
2019-04-14T17:10:29.808Z,9.6
2019-04-14T17:15:25.364Z,9.3
2019-04-14T17:20:20.638Z,8.9
2019-04-14T17:25:15.839Z,8.8
2019-04-14T17:30:11.304Z,8.5
2019-04-14T17:35:07.198Z,8.4
2019-04-14T17:40:01.868Z,8.1
2019-04-14T17:44:57.152Z,8.1
2019-04-14T17:49:52.073Z,7.8
2019-04-14T17:54:47.590Z,7.7
2019-04-14T17:59:42.949Z,7.5
2019-04-14T18:04:38.414Z,7.4
2019-04-14T18:09:33.933Z,7.3
2019-04-14T18:14:28.974Z,7.1
2019-04-14T18:19:24.644Z,7.1
2019-04-14T18:24:20.176Z,7.1
2019-04-14T18:29:15.173Z,6.9
2019-04-14T18:34:12.339Z,6.7
2019-04-14T18:39:06.423Z,6.8
2019-04-14T18:44:01.905Z,6.8
2019-04-14T18:48:57.534Z,6.7
2019-04-14T18:53:53.047Z,6.6
2019-04-14T18:58:48.532Z,6.6
2019-04-14T19:03:44.025Z,6.4
2019-04-14T19:08:39.535Z,6.4
2019-04-14T19:13:34.927Z,6.3
2019-04-14T19:18:30.276Z,6.2
2019-04-14T19:23:25.707Z,6.1
2019-04-14T19:28:21.447Z,5.9
2019-04-14T19:33:16.692Z,5.9
2019-04-14T19:38:12.109Z,5.9
2019-04-14T19:43:06.835Z,5.9
2019-04-14T19:48:02.052Z,5.9
2019-04-14T19:52:57.479Z,6
2019-04-14T19:57:53.117Z,5.9
2019-04-14T20:02:48.510Z,6.1
2019-04-14T20:07:43.830Z,6.2
2019-04-14T20:12:39.324Z,6.4
2019-04-14T20:17:34.807Z,6.6
2019-04-14T20:22:30.468Z,6.6
2019-04-14T20:27:25.980Z,6.7
2019-04-14T20:32:21.563Z,6.7
2019-04-14T20:37:17.258Z,6.7
2019-04-14T20:42:12.845Z,6.9
2019-04-14T20:47:08.504Z,6.9
2019-04-14T20:52:03.989Z,6.9
2019-04-14T20:56:59.759Z,6.8
2019-04-14T21:01:55.201Z,6.8
2019-04-14T21:06:50.752Z,7
2019-04-14T21:11:46.261Z,7
2019-04-14T21:16:41.859Z,7
2019-04-14T21:21:37.342Z,6.8
2019-04-14T21:26:33.032Z,6.8
2019-04-14T21:31:28.451Z,6.8
2019-04-14T21:36:24.100Z,6.9
2019-04-14T21:41:19.784Z,7
2019-04-14T21:46:15.389Z,7
2019-04-14T21:51:11.123Z,7.1
2019-04-14T21:56:13.045Z,7.2
2019-04-14T22:01:02.321Z,7.3
2019-04-14T22:05:57.962Z,7.2
2019-04-14T22:10:53.067Z,7.2
2019-04-14T22:15:48.837Z,7.3
2019-04-14T22:20:44.172Z,7.4
2019-04-14T22:25:39.587Z,7.4
2019-04-14T22:30:35.015Z,7.3
2019-04-14T22:35:30.604Z,7.3
2019-04-14T22:40:26.014Z,7.3
2019-04-14T22:45:21.962Z,7.4
2019-04-14T22:50:17.400Z,7.5
2019-04-14T22:55:12.970Z,7.6
2019-04-14T23:00:08.489Z,7.5
2019-04-14T23:05:04.061Z,7.6
2019-04-14T23:09:59.342Z,7.7
2019-04-14T23:14:54.923Z,7.7
2019-04-14T23:19:50.254Z,7.7
2019-04-14T23:24:45.768Z,7.7
2019-04-14T23:29:41.516Z,7.8
2019-04-14T23:34:36.822Z,7.7
2019-04-14T23:39:32.347Z,7.8
2019-04-14T23:44:27.833Z,7.7
2019-04-14T23:49:23.468Z,7.8
2019-04-14T23:54:18.991Z,7.8
2019-04-14T23:59:14.532Z,7.7
